Time;durP1;ratioP1;P1;durP2;ratioP2;P2;SDS_P1;SDS_P2;PMS_P1;PMS_P2;Temp;Humidity;BMP_temperature;BMP_pressure;BME280_temperature;BME280_humidity;BME280_pressure;Samples;Min_cycle;Max_cycle;Signal;HPM_P1;HPM_P2
2022/10/12 00:01:24;;;;;;;45.28;23.10;;;;;;;;;;1788236;78;25495;-72
2022/10/12 00:03:51;;;;;;;41.98;21.65;;;;;;;;;;1787521;80;25585;-73
2022/10/12 00:06:21;;;;;;;38.30;21.15;;;;;;;;;;1783689;78;25708;-72
2022/10/12 00:08:51;;;;;;;42.20;21.35;;;;;;;;;;1770501;80;27392;-72
2022/10/12 00:11:21;;;;;;;35.90;20.35;;;;;;;;;;1769946;80;25566;-72
2022/10/12 00:13:48;;;;;;;41.02;20.92;;;;;;;;;;1770287;80;25314;-71
2022/10/12 00:16:17;;;;;;;40.50;20.80;;;;;;;;;;1764775;80;25469;-72
2022/10/12 00:18:44;;;;;;;34.63;19.62;;;;;;;;;;1774973;80;25472;-73
2022/10/12 00:21:14;;;;;;;40.17;20.00;;;;;;;;;;1783709;80;27358;-72
2022/10/12 00:23:43;;;;;;;33.25;20.15;;;;;;;;;;1766813;80;25501;-72
2022/10/12 00:26:12;;;;;;;34.63;20.00;;;;;;;;;;1760766;80;25310;-73
2022/10/12 00:28:39;;;;;;;34.63;20.30;;;;;;;;;;1750913;80;25529;-72
2022/10/12 00:31:13;;;;;;;36.53;19.98;;;;;;;;;;1756113;80;25542;-72
2022/10/12 00:33:41;;;;;;;34.45;20.45;;;;;;;;;;1755867;78;27518;-72
2022/10/12 00:36:17;;;;;;;33.60;19.30;;;;;;;;;;1755096;78;25564;-73
2022/10/12 00:38:44;;;;;;;32.28;19.17;;;;;;;;;;1745473;80;25375;-72
2022/10/12 00:41:13;;;;;;;33.00;20.05;;;;;;;;;;1745266;79;25555;-72
2022/10/12 00:43:42;;;;;;;38.30;19.65;;;;;;;;;;1745401;81;25607;-72
2022/10/12 00:46:15;;;;;;;36.58;19.73;;;;;;;;;;1745437;81;27413;-72
2022/10/12 00:48:43;;;;;;;34.45;19.10;;;;;;;;;;1743313;78;25391;-72
2022/10/12 00:51:11;;;;;;;30.80;18.70;;;;;;;;;;1765066;79;25569;-72
2022/10/12 00:53:41;;;;;;;36.20;19.50;;;;;;;;;;1769343;78;25672;-72
2022/10/12 00:56:11;;;;;;;32.40;19.00;;;;;;;;;;1752853;79;25570;-72
2022/10/12 00:58:38;;;;;;;33.60;18.52;;;;;;;;;;1758813;80;27414;-72
2022/10/12 01:01:06;;;;;;;38.02;19.85;;;;;;;;;;1771709;80;25361;-72
2022/10/12 01:03:34;;;;;;;38.53;20.60;;;;;;;;;;1754307;80;25434;-72
2022/10/12 01:06:02;;;;;;;44.85;22.30;;;;;;;;;;1767780;78;25704;-72
2022/10/12 01:08:29;;;;;;;39.88;21.17;;;;;;;;;;1760925;80;25511;-72
2022/10/12 01:10:57;;;;;;;38.73;21.95;;;;;;;;;;1767293;80;27963;-72
2022/10/12 01:13:25;;;;;;;50.15;23.73;;;;;;;;;;1770694;80;25510;-72
2022/10/12 01:16:05;;;;;;;42.60;22.35;;;;;;;;;;1752681;81;25452;-72
2022/10/12 01:18:57;;;;;;;39.67;21.68;;;;;;;;;;1745318;82;26084;-73
2022/10/12 01:21:24;;;;;;;42.27;21.95;;;;;;;;;;1763327;80;25589;-72
2022/10/12 01:24:13;;;;;;;38.95;19.65;;;;;;;;;;1715494;82;27901;-71
2022/10/12 01:27:03;;;;;;;32.60;17.17;;;;;;;;;;1738048;82;31827;-71
2022/10/12 01:30:09;;;;;;;36.95;17.95;;;;;;;;;;1736911;80;32843;-71
2022/10/12 01:32:43;;;;;;;34.33;16.85;;;;;;;;;;1738896;82;25494;-71
2022/10/12 01:35:26;;;;;;;31.82;17.15;;;;;;;;;;1736026;82;25181;-72
2022/10/12 01:38:02;;;;;;;32.23;17.92;;;;;;;;;;1735249;82;27338;-71
2022/10/12 01:41:02;;;;;;;31.77;17.92;;;;;;;;;;1730584;82;25156;-71
2022/10/12 01:43:36;;;;;;;37.63;17.80;;;;;;;;;;1739841;80;25377;-71
2022/10/12 01:46:07;;;;;;;32.60;16.55;;;;;;;;;;1739154;80;25536;-71
2022/10/12 01:48:33;;;;;;;35.92;18.65;;;;;;;;;;1715956;82;25682;-71
2022/10/12 01:51:02;;;;;;;34.15;18.00;;;;;;;;;;1717987;80;27377;-71
2022/10/12 01:53:38;;;;;;;34.23;18.85;;;;;;;;;;1736808;82;25544;-72
2022/10/12 01:56:11;;;;;;;37.93;19.37;;;;;;;;;;1737852;80;25512;-72
2022/10/12 01:59:01;;;;;;;33.70;17.55;;;;;;;;;;1737471;81;25754;-71
2022/10/12 02:01:41;;;;;;;37.17;20.10;;;;;;;;;;1737157;82;25428;-72
2022/10/12 02:04:23;;;;;;;35.80;18.32;;;;;;;;;;1738067;82;27904;-72
2022/10/12 02:06:57;;;;;;;33.48;17.07;;;;;;;;;;1738014;82;25701;-72
2022/10/12 02:09:27;;;;;;;36.88;17.48;;;;;;;;;;1727078;80;25314;-72
2022/10/12 02:11:57;;;;;;;32.35;16.97;;;;;;;;;;1737813;80;26032;-72
2022/10/12 02:14:27;;;;;;;33.73;18.82;;;;;;;;;;1734046;80;25595;-72
2022/10/12 02:17:03;;;;;;;36.55;18.32;;;;;;;;;;1739340;82;27914;-72
2022/10/12 02:19:34;;;;;;;35.65;18.67;;;;;;;;;;1738111;82;25506;-71
2022/10/12 02:22:03;;;;;;;36.48;17.52;;;;;;;;;;1737716;82;25369;-71
2022/10/12 02:24:32;;;;;;;35.10;19.17;;;;;;;;;;1754813;80;25531;-71
2022/10/12 02:27:00;;;;;;;30.77;17.90;;;;;;;;;;1780202;80;25719;-71
2022/10/12 02:29:31;;;;;;;27.73;17.77;;;;;;;;;;1783777;80;27403;-71
2022/10/12 02:32:01;;;;;;;36.00;18.40;;;;;;;;;;1780129;80;25718;-71
2022/10/12 02:34:41;;;;;;;32.67;17.67;;;;;;;;;;1782893;80;25352;-71
2022/10/12 02:37:12;;;;;;;33.42;17.20;;;;;;;;;;1772956;79;26179;-71
2022/10/12 02:39:43;;;;;;;32.90;17.87;;;;;;;;;;1765038;80;25439;-74
2022/10/12 02:42:12;;;;;;;39.75;19.52;;;;;;;;;;1760820;78;27372;-72
2022/10/12 02:44:41;;;;;;;34.73;17.85;;;;;;;;;;1761945;80;25438;-72
2022/10/12 02:47:09;;;;;;;44.03;19.75;;;;;;;;;;1761826;78;25488;-72
2022/10/12 02:49:37;;;;;;;38.80;18.40;;;;;;;;;;1775099;80;25529;-72
2022/10/12 02:52:05;;;;;;;31.52;16.67;;;;;;;;;;1785000;80;25294;-72
2022/10/12 02:54:33;;;;;;;36.73;17.23;;;;;;;;;;1761689;80;27386;-73
2022/10/12 02:56:59;;;;;;;34.03;17.98;;;;;;;;;;1771551;78;25620;-72
2022/10/12 02:59:27;;;;;;;33.35;19.40;;;;;;;;;;1773928;78;25312;-72
2022/10/12 03:01:54;;;;;;;33.15;19.07;;;;;;;;;;1782906;80;25537;-72
2022/10/12 03:04:21;;;;;;;30.48;17.48;;;;;;;;;;1764878;78;25310;-72
2022/10/12 03:06:48;;;;;;;38.38;18.00;;;;;;;;;;1783929;80;27897;-72
2022/10/12 03:09:15;;;;;;;35.10;17.70;;;;;;;;;;1775037;80;25323;-72
2022/10/12 03:11:46;;;;;;;30.92;17.65;;;;;;;;;;1783404;80;25585;-72
2022/10/12 03:14:12;;;;;;;31.77;17.20;;;;;;;;;;1780710;80;26026;-72
2022/10/12 03:16:39;;;;;;;30.52;18.35;;;;;;;;;;1771580;80;25548;-72
2022/10/12 03:19:06;;;;;;;31.27;18.37;;;;;;;;;;1772895;78;27472;-72
2022/10/12 03:21:33;;;;;;;32.35;17.90;;;;;;;;;;1774553;80;25347;-72
2022/10/12 03:24:00;;;;;;;34.15;18.73;;;;;;;;;;1770864;80;25596;-72
2022/10/12 03:26:27;;;;;;;35.50;20.90;;;;;;;;;;1773777;79;26110;-72
2022/10/12 03:28:54;;;;;;;37.10;20.10;;;;;;;;;;1771265;78;25534;-73
2022/10/12 03:31:21;;;;;;;36.95;18.52;;;;;;;;;;1773576;78;27964;-73
2022/10/12 03:33:48;;;;;;;37.08;19.32;;;;;;;;;;1782308;79;25942;-73
2022/10/12 03:36:15;;;;;;;31.75;18.70;;;;;;;;;;1770510;79;25320;-72
2022/10/12 03:38:42;;;;;;;38.02;17.70;;;;;;;;;;1780375;80;25711;-72
2022/10/12 03:41:09;;;;;;;35.28;17.90;;;;;;;;;;1775415;79;25516;-72
2022/10/12 03:43:36;;;;;;;30.37;17.85;;;;;;;;;;1764626;80;27410;-72
2022/10/12 03:46:03;;;;;;;31.93;16.90;;;;;;;;;;1764581;80;25682;-72
2022/10/12 03:48:30;;;;;;;29.70;17.50;;;;;;;;;;1764745;78;25363;-72
2022/10/12 03:50:57;;;;;;;34.55;18.92;;;;;;;;;;1764695;79;25398;-72
2022/10/12 03:53:24;;;;;;;35.10;17.90;;;;;;;;;;1764732;80;25305;-72
2022/10/12 03:55:51;;;;;;;31.93;17.37;;;;;;;;;;1744839;79;28007;-71
2022/10/12 03:58:18;;;;;;;30.75;18.37;;;;;;;;;;1780172;79;25381;-71
2022/10/12 04:00:45;;;;;;;30.85;17.87;;;;;;;;;;1789188;79;25443;-72
2022/10/12 04:03:12;;;;;;;31.77;17.75;;;;;;;;;;1777815;78;25672;-72
2022/10/12 04:05:39;;;;;;;38.53;18.05;;;;;;;;;;1772980;78;25457;-72
2022/10/12 04:08:06;;;;;;;31.07;17.45;;;;;;;;;;1779359;79;27393;-72
2022/10/12 04:10:33;;;;;;;32.73;18.27;;;;;;;;;;1768805;79;25570;-71
2022/10/12 04:13:00;;;;;;;36.48;17.95;;;;;;;;;;1779061;80;25618;-72
2022/10/12 04:15:27;;;;;;;35.10;18.62;;;;;;;;;;1787789;78;25572;-71
2022/10/12 04:17:54;;;;;;;37.38;19.55;;;;;;;;;;1787679;80;25522;-71
2022/10/12 04:20:21;;;;;;;32.65;18.95;;;;;;;;;;1787843;80;27410;-71
2022/10/12 04:22:48;;;;;;;37.48;19.45;;;;;;;;;;1771172;79;25607;-71
2022/10/12 04:25:15;;;;;;;39.45;19.85;;;;;;;;;;1750885;80;25690;-71
2022/10/12 04:27:42;;;;;;;34.75;18.60;;;;;;;;;;1761455;80;25511;-72
2022/10/12 04:30:11;;;;;;;40.45;21.12;;;;;;;;;;1763663;80;25519;-71
2022/10/12 04:32:37;;;;;;;31.27;18.73;;;;;;;;;;1764520;80;27998;-71
2022/10/12 04:35:05;;;;;;;43.08;21.77;;;;;;;;;;1755452;81;25642;-71
2022/10/12 04:37:32;;;;;;;37.23;19.75;;;;;;;;;;1743056;80;25572;-72
2022/10/12 04:39:59;;;;;;;36.77;19.65;;;;;;;;;;1745259;81;25553;-71
2022/10/12 04:42:25;;;;;;;41.08;20.60;;;;;;;;;;1742882;80;25327;-71
2022/10/12 04:44:52;;;;;;;35.10;20.00;;;;;;;;;;1742458;81;27429;-72
2022/10/12 04:47:19;;;;;;;33.98;19.02;;;;;;;;;;1742375;81;25436;-71
2022/10/12 04:49:46;;;;;;;42.33;21.07;;;;;;;;;;1742425;81;25436;-71
2022/10/12 04:52:13;;;;;;;66.65;33.90;;;;;;;;;;1744320;80;25540;-72
2022/10/12 04:54:40;;;;;;;71.77;33.35;;;;;;;;;;1753584;80;25643;-71
2022/10/12 04:57:07;;;;;;;40.50;21.73;;;;;;;;;;1750950;80;27326;-71
2022/10/12 04:59:34;;;;;;;37.48;19.12;;;;;;;;;;1758969;80;25288;-72
2022/10/12 05:02:01;;;;;;;34.38;19.23;;;;;;;;;;1749362;81;25287;-73
2022/10/12 05:04:28;;;;;;;35.98;19.55;;;;;;;;;;1763406;80;26077;-73
2022/10/12 05:06:55;;;;;;;37.03;19.07;;;;;;;;;;1759261;81;25551;-72
2022/10/12 05:09:22;;;;;;;33.28;19.17;;;;;;;;;;1757402;81;27406;-72
2022/10/12 05:11:49;;;;;;;31.40;17.62;;;;;;;;;;1759469;80;25678;-72
2022/10/12 05:14:16;;;;;;;32.83;18.15;;;;;;;;;;1749899;80;25655;-72
2022/10/12 05:16:43;;;;;;;32.90;18.52;;;;;;;;;;1779170;80;25638;-73
2022/10/12 05:19:10;;;;;;;36.38;18.37;;;;;;;;;;1755124;80;25627;-73
2022/10/12 05:21:39;;;;;;;34.48;19.50;;;;;;;;;;1740889;81;27394;-72
2022/10/12 05:24:06;;;;;;;36.90;18.63;;;;;;;;;;1742396;81;26945;-73
2022/10/12 05:26:33;;;;;;;35.25;19.32;;;;;;;;;;1745310;81;25355;-73
2022/10/12 05:29:00;;;;;;;30.05;18.27;;;;;;;;;;1741288;81;25570;-71
2022/10/12 05:31:27;;;;;;;34.25;18.10;;;;;;;;;;1755270;81;25543;-70
2022/10/12 05:33:54;;;;;;;38.35;19.60;;;;;;;;;;1759514;80;27341;-72
2022/10/12 05:36:21;;;;;;;38.35;21.10;;;;;;;;;;1744092;81;25615;-73
2022/10/12 05:38:48;;;;;;;35.90;19.65;;;;;;;;;;1741406;81;25478;-72
2022/10/12 05:41:15;;;;;;;38.90;20.17;;;;;;;;;;1741226;81;25538;-72
2022/10/12 05:43:42;;;;;;;40.12;20.10;;;;;;;;;;1750933;81;25472;-72
2022/10/12 05:46:09;;;;;;;35.78;20.17;;;;;;;;;;1752043;81;27437;-72
2022/10/12 05:48:36;;;;;;;36.98;20.00;;;;;;;;;;1758258;81;25529;-72
2022/10/12 05:51:03;;;;;;;32.50;18.77;;;;;;;;;;1746293;81;25434;-72
2022/10/12 05:53:30;;;;;;;34.95;18.95;;;;;;;;;;1754133;81;25586;-72
2022/10/12 05:55:58;;;;;;;50.00;26.33;;;;;;;;;;1741129;81;25510;-73
2022/10/12 05:58:27;;;;;;;35.93;21.90;;;;;;;;;;1758007;81;27362;-73
2022/10/12 06:00:55;;;;;;;46.85;23.12;;;;;;;;;;1761546;81;25604;-73
2022/10/12 06:03:22;;;;;;;34.55;21.30;;;;;;;;;;1742263;81;25628;-68
2022/10/12 06:05:48;;;;;;;43.35;22.85;;;;;;;;;;1745442;81;26230;-69
2022/10/12 06:08:15;;;;;;;39.48;22.10;;;;;;;;;;1765382;80;25173;-72
2022/10/12 06:10:45;;;;;;;39.40;23.35;;;;;;;;;;1745564;81;27322;-71
2022/10/12 06:13:12;;;;;;;;;;;;;;;;;;1749424;81;25360;-72
2022/10/12 06:15:39;;;;;;;41.40;23.00;;;;;;;;;;1759150;81;25528;-72
2022/10/12 06:18:06;;;;;;;42.40;24.12;;;;;;;;;;1739737;81;25541;-72
2022/10/12 06:20:34;;;;;;;40.85;25.20;;;;;;;;;;1752999;81;25323;-73
2022/10/12 06:23:01;;;;;;;43.28;24.15;;;;;;;;;;1742302;81;27263;-73
2022/10/12 06:25:29;;;;;;;45.95;25.72;;;;;;;;;;1747644;81;25464;-73
2022/10/12 06:27:56;;;;;;;50.38;25.45;;;;;;;;;;1762196;81;25616;-73
2022/10/12 06:30:23;;;;;;;45.90;26.37;;;;;;;;;;1747028;81;25538;-73
2022/10/12 06:32:50;;;;;;;46.23;25.57;;;;;;;;;;1767420;80;25563;-73
2022/10/12 06:35:17;;;;;;;55.30;26.25;;;;;;;;;;1750071;80;27281;-73
2022/10/12 06:37:50;;;;;;;49.53;27.35;;;;;;;;;;1776011;79;25586;-72
2022/10/12 06:40:18;;;;;;;45.58;26.10;;;;;;;;;;1751579;80;25336;-72
2022/10/12 06:42:45;;;;;;;49.77;27.75;;;;;;;;;;1768830;79;25527;-72
2022/10/12 06:45:13;;;;;;;44.10;27.07;;;;;;;;;;1748223;80;25378;-73
2022/10/12 06:47:40;;;;;;;49.33;27.17;;;;;;;;;;1752791;80;27221;-73
2022/10/12 06:50:08;;;;;;;40.60;23.10;;;;;;;;;;1745150;81;25633;-72
2022/10/12 06:52:35;;;;;;;38.20;22.58;;;;;;;;;;1748994;80;25481;-72
2022/10/12 06:55:04;;;;;;;39.25;22.13;;;;;;;;;;1748961;80;25322;-72
2022/10/12 06:57:31;;;;;;;39.98;23.30;;;;;;;;;;1750636;81;25496;-71
2022/10/12 06:59:57;;;;;;;40.05;22.10;;;;;;;;;;1746126;81;27282;-72
2022/10/12 07:02:24;;;;;;;34.75;21.40;;;;;;;;;;1754199;80;25443;-72
2022/10/12 07:04:52;;;;;;;39.50;21.75;;;;;;;;;;1747325;81;25466;-72
2022/10/12 07:07:19;;;;;;;36.58;19.73;;;;;;;;;;1756167;81;25531;-72
2022/10/12 07:09:46;;;;;;;36.28;20.40;;;;;;;;;;1745288;82;25560;-71
2022/10/12 07:12:13;;;;;;;33.85;20.10;;;;;;;;;;1765660;80;26923;-72
2022/10/12 07:14:40;;;;;;;45.63;20.95;;;;;;;;;;1767096;80;25552;-71
2022/10/12 07:17:06;;;;;;;33.60;19.62;;;;;;;;;;1737357;80;25477;-71
2022/10/12 07:19:33;;;;;;;34.95;19.45;;;;;;;;;;1766762;80;25631;-71
2022/10/12 07:22:01;;;;;;;37.08;20.68;;;;;;;;;;1756667;80;25380;-71
2022/10/12 07:24:35;;;;;;;32.50;19.55;;;;;;;;;;1756320;81;27871;-73
2022/10/12 07:26:56;;;;;;;34.50;18.82;;;;;;;;;;1742861;80;25651;-75
2022/10/12 07:29:23;;;;;;;33.58;18.80;;;;;;;;;;1745279;81;25304;-75
2022/10/12 07:31:50;;;;;;;32.65;19.35;;;;;;;;;;1777634;80;25328;-75
2022/10/12 07:34:17;;;;;;;34.90;19.90;;;;;;;;;;1773273;80;25623;-75
2022/10/12 07:36:44;;;;;;;32.53;19.42;;;;;;;;;;1752522;80;27211;-74
2022/10/12 07:39:11;;;;;;;33.35;18.32;;;;;;;;;;1747705;81;25526;-75
2022/10/12 07:41:38;;;;;;;32.58;18.73;;;;;;;;;;1755890;80;25547;-74
2022/10/12 07:44:05;;;;;;;29.30;16.97;;;;;;;;;;1747977;80;25599;-74
2022/10/12 07:46:32;;;;;;;31.12;18.00;;;;;;;;;;1749118;80;25490;-74
2022/10/12 07:48:59;;;;;;;33.10;18.02;;;;;;;;;;1767056;80;27261;-74
2022/10/12 07:51:26;;;;;;;34.75;17.25;;;;;;;;;;1758370;80;25536;-74
2022/10/12 07:53:53;;;;;;;36.10;19.42;;;;;;;;;;1763138;80;25507;-74
2022/10/12 07:56:20;;;;;;;34.95;18.12;;;;;;;;;;1759949;81;25620;-74
2022/10/12 07:58:49;;;;;;;33.95;17.55;;;;;;;;;;1763031;80;25465;-74
2022/10/12 08:01:16;;;;;;;30.35;17.20;;;;;;;;;;1766793;80;28145;-72
2022/10/12 08:03:49;;;;;;;30.52;16.57;;;;;;;;;;1761805;81;26200;-75
2022/10/12 08:06:20;;;;;;;30.25;17.42;;;;;;;;;;1744300;80;25631;-72
2022/10/12 08:08:48;;;;;;;36.55;16.23;;;;;;;;;;1742773;81;26337;-75
2022/10/12 08:11:16;;;;;;;30.90;15.78;;;;;;;;;;1743831;81;25566;-73
2022/10/12 08:13:44;;;;;;;27.30;15.88;;;;;;;;;;1750658;81;27857;-69
2022/10/12 08:16:13;;;;;;;28.77;18.15;;;;;;;;;;1761038;81;25607;-69
2022/10/12 08:18:41;;;;;;;34.35;19.00;;;;;;;;;;1765347;80;25373;-69
2022/10/12 08:21:10;;;;;;;33.88;17.57;;;;;;;;;;1761604;80;25879;-69
2022/10/12 08:23:37;;;;;;;29.07;15.93;;;;;;;;;;1765844;80;25600;-69
2022/10/12 08:26:05;;;;;;;33.70;16.20;;;;;;;;;;1761145;80;27197;-69
2022/10/12 08:28:32;;;;;;;27.40;14.98;;;;;;;;;;1752123;81;25639;-70
2022/10/12 08:30:59;;;;;;;23.07;14.78;;;;;;;;;;1752771;81;25558;-72
2022/10/12 08:33:28;;;;;;;33.83;16.25;;;;;;;;;;1758280;81;25632;-70
2022/10/12 08:35:55;;;;;;;27.30;16.30;;;;;;;;;;1762360;81;25498;-71
2022/10/12 08:38:22;;;;;;;30.08;17.40;;;;;;;;;;1755563;81;27299;-71
2022/10/12 08:41:14;;;;;;;26.70;16.25;;;;;;;;;;1742831;81;25344;-71
2022/10/12 08:43:48;;;;;;;33.73;16.82;;;;;;;;;;1775900;79;25358;-70
2022/10/12 08:46:18;;;;;;;29.30;14.68;;;;;;;;;;1726209;81;26308;-69
2022/10/12 08:48:58;;;;;;;31.15;15.95;;;;;;;;;;1735372;80;25497;-69
2022/10/12 08:51:26;;;;;;;28.98;14.93;;;;;;;;;;1747272;81;27370;-68
2022/10/12 08:53:57;;;;;;;25.43;14.18;;;;;;;;;;1742194;81;27021;-68
2022/10/12 08:56:24;;;;;;;27.62;14.83;;;;;;;;;;1745074;81;25536;-67
2022/10/12 08:58:52;;;;;;;32.53;15.25;;;;;;;;;;1764543;80;27499;-68
2022/10/12 09:01:35;;;;;;;26.77;13.68;;;;;;;;;;1737318;81;25554;-69
2022/10/12 09:07:06;;;;;;;33.33;13.98;;;;;;;23.85;42.22;101402.72;1842715;76;25547;-66
2022/10/12 09:09:53;;;;;;;31.60;12.60;;;;;;;23.84;41.75;101403.09;1801187;78;25639;-66
2022/10/12 09:12:40;;;;;;;28.67;11.57;;;;;;;23.71;40.38;101399.70;1791321;78;28328;-67
2022/10/12 09:15:36;;;;;;;22.02;11.08;;;;;;;23.58;40.77;101396.94;1799561;77;25740;-67
2022/10/12 09:18:21;;;;;;;30.00;10.98;;;;;;;23.62;40.50;101396.42;1804880;77;25798;-68
2022/10/12 09:20:50;;;;;;;21.77;8.53;;;;;;;23.77;40.80;101390.50;1803466;77;25543;-68
2022/10/12 09:23:24;;;;;;;17.73;6.67;;;;;;;24.11;40.73;101390.59;1802872;78;25711;-67
2022/10/12 09:26:02;;;;;;;29.27;9.35;;;;;;;24.43;40.40;101387.65;1801109;78;27640;-68
2022/10/12 09:28:37;;;;;;;17.07;7.25;;;;;;;24.71;39.48;101380.07;1779256;78;25956;-68
2022/10/12 09:31:09;;;;;;;19.70;6.87;;;;;;;24.89;39.04;101385.76;1799281;77;25814;-66
2022/10/12 09:33:50;;;;;;;16.73;7.00;;;;;;;25.11;38.67;101380.61;1811188;78;25837;-68
2022/10/12 09:36:20;;;;;;;15.93;5.72;;;;;;;25.29;38.36;101388.32;1802964;77;25418;-68
2022/10/12 09:38:49;;;;;;;13.83;5.65;;;;;;;25.50;38.10;101386.28;1801081;77;28236;-69
2022/10/12 09:41:30;;;;;;;11.88;4.35;;;;;;;25.57;37.02;101387.71;1804639;78;25728;-68
2022/10/12 09:44:00;;;;;;;15.48;5.45;;;;;;;25.60;36.49;101392.48;1798401;78;25695;-69
2022/10/12 09:46:55;;;;;;;10.82;4.08;;;;;;;25.67;36.75;101382.83;1806602;78;25461;-68
2022/10/12 09:49:21;;;;;;;13.38;4.85;;;;;;;25.38;35.10;101390.76;1803491;78;25726;-69
2022/10/12 09:51:51;;;;;;;12.33;4.08;;;;;;;25.14;35.55;101385.39;1800934;78;29794;-69
2022/10/12 09:54:21;;;;;;;15.18;4.37;;;;;;;24.84;34.82;101384.72;1790726;78;25638;-69
2022/10/12 09:56:51;;;;;;;;;;;;;;;24.67;35.89;101382.80;1815630;78;25759;-71
2022/10/12 09:59:23;;;;;;;10.95;3.80;;;;;;;24.86;35.24;101383.75;1813595;77;25518;-70
2022/10/12 10:02:17;;;;;;;11.88;4.20;;;;;;;24.88;35.38;101380.03;1812644;78;25407;-70
2022/10/12 10:04:46;;;;;;;22.30;6.67;;;;;;;25.03;35.71;101380.38;1803080;77;27420;-69
2022/10/12 10:07:28;;;;;;;18.75;5.97;;;;;;;25.35;35.84;101380.66;1822655;78;25656;-69
2022/10/12 10:10:23;;;;;;;9.70;3.37;;;;;;;25.67;35.66;101380.06;1815799;78;25447;-68
2022/10/12 10:13:01;;;;;;;15.93;4.03;;;;;;;25.94;34.98;101381.80;1795500;77;25526;-69
2022/10/12 10:15:35;;;;;;;12.33;3.40;;;;;;;26.05;35.03;101381.27;1810948;78;25977;-68
2022/10/12 10:18:30;;;;;;;6.97;2.47;;;;;;;26.04;34.06;101383.86;1802094;78;27276;-69
2022/10/12 10:20:59;;;;;;;13.18;3.98;;;;;;;25.59;32.99;101380.41;1791606;78;25743;-68
2022/10/12 10:23:43;;;;;;;16.00;4.83;;;;;;;25.41;34.38;101384.45;1800577;78;25540;-69
2022/10/12 10:26:14;;;;;;;11.15;3.50;;;;;;;25.16;33.91;101376.70;1816242;77;25975;-68
2022/10/12 10:28:47;;;;;;;14.38;4.33;;;;;;;24.79;33.32;101370.07;1805942;78;25628;-68
2022/10/12 10:31:22;;;;;;;12.15;4.45;;;;;;;24.65;33.55;101375.45;1803448;78;27847;-70
2022/10/12 10:34:17;;;;;;;18.57;6.40;;;;;;;24.10;33.38;101368.29;1797942;78;25780;-68
2022/10/12 10:36:51;;;;;;;7.85;3.05;;;;;;;23.86;34.67;101371.73;1786630;77;25369;-68
2022/10/12 10:39:23;;;;;;;12.68;3.87;;;;;;;23.67;33.91;101369.86;1817719;78;25403;-71
2022/10/12 10:41:52;;;;;;;9.25;3.02;;;;;;;23.24;34.01;101373.33;1811907;77;25702;-69
2022/10/12 10:44:29;;;;;;;9.95;3.80;;;;;;;22.91;33.62;101360.94;1799042;78;32553;-69
2022/10/12 10:47:09;;;;;;;10.23;5.80;;;;;;;22.72;35.32;101367.31;1810808;78;25717;-69
2022/10/12 10:49:43;;;;;;;6.67;3.27;;;;;;;23.02;35.74;101361.93;1793182;78;25584;-68
2022/10/12 10:52:32;;;;;;;9.70;3.80;;;;;;;22.91;35.53;101360.94;1767171;77;26160;-66
2022/10/12 10:55:19;;;;;;;16.37;3.40;;;;;;;23.21;35.49;101358.92;1791728;77;25630;-66
2022/10/12 10:58:05;;;;;;;11.55;2.60;;;;;;;23.41;34.55;101352.70;1800441;78;27463;-68
2022/10/12 11:00:35;;;;;;;14.00;10.82;;;;;;;23.44;35.27;101347.82;1791616;77;25625;-71
2022/10/12 11:03:22;;;;;;;11.75;3.75;;;;;;;23.75;36.12;101350.03;1802543;78;25661;-70
2022/10/12 11:05:59;;;;;;;54.18;50.60;;;;;;;24.03;36.42;101346.89;1755759;80;25704;-70
2022/10/12 11:08:29;;;;;;;6.30;2.60;;;;;;;24.60;35.95;101348.13;1758045;81;25621;-69
2022/10/12 11:11:04;;;;;;;11.90;3.05;;;;;;;25.09;35.35;101344.83;1681530;84;27607;-69
2022/10/12 11:13:44;;;;;;;12.50;5.12;;;;;;;25.43;34.74;101344.70;1702285;83;25705;-68
2022/10/12 11:16:25;;;;;;;10.15;2.95;;;;;;;25.56;34.52;101341.83;1696867;83;25670;-70
2022/10/12 11:19:03;;;;;;;9.73;2.50;;;;;;;25.66;34.62;101339.70;1687666;83;25757;-71
2022/10/12 11:21:53;;;;;;;9.23;2.62;;;;;;;25.97;33.60;101341.66;1701214;83;25798;-71
2022/10/12 11:24:39;;;;;;;8.40;2.20;;;;;;;25.90;31.71;101347.94;1685656;83;28535;-69
2022/10/12 11:27:25;;;;;;;9.35;4.45;;;;;;;25.63;32.29;101334.94;1702510;83;25978;-71
2022/10/12 11:29:56;;;;;;;13.10;4.17;;;;;;;25.34;32.16;101332.59;1702222;83;25759;-69
2022/10/12 11:32:36;;;;;;;12.78;4.83;;;;;;;25.41;33.45;101327.09;1676607;83;25797;-71
2022/10/12 11:35:06;;;;;;;9.65;2.50;;;;;;;25.63;33.55;101330.78;1686214;83;25667;-72
2022/10/12 11:37:40;;;;;;;9.93;2.77;;;;;;;25.95;33.39;101332.95;1691485;83;27472;-71
2022/10/12 11:40:13;;;;;;;9.95;2.95;;;;;;;26.30;32.71;101330.68;1701934;83;25626;-72
2022/10/12 11:42:41;;;;;;;10.20;2.70;;;;;;;26.39;32.21;101326.35;1696965;81;25820;-73
2022/10/12 11:45:28;;;;;;;9.78;2.80;;;;;;;26.40;31.94;101329.31;1739182;81;26159;-73
2022/10/12 11:48:02;;;;;;;9.83;2.67;;;;;;;26.37;31.10;101323.76;1726975;82;25735;-73
2022/10/12 11:50:42;;;;;;;10.40;3.27;;;;;;;25.98;30.81;101315.52;1717491;81;27450;-72
2022/10/12 11:53:41;;;;;;;7.95;3.55;;;;;;;25.80;31.69;101316.03;1735787;81;25725;-74
2022/10/12 11:56:29;;;;;;;7.50;2.77;;;;;;;25.89;32.17;101322.00;1728990;82;25787;-73
2022/10/12 11:59:00;;;;;;;5.75;2.37;;;;;;;25.89;31.72;101310.91;1743370;80;25473;-70
2022/10/12 12:01:50;;;;;;;11.63;3.70;;;;;;;25.91;31.49;101317.66;1725589;80;25607;-68
2022/10/12 12:04:33;;;;;;;7.72;3.08;;;;;;;25.88;31.29;101320.39;1728736;80;27492;-68
2022/10/12 12:07:05;;;;;;;6.35;2.85;;;;;;;25.79;31.18;101318.59;1739829;81;25753;-69
2022/10/12 12:09:41;;;;;;;10.65;2.62;;;;;;;25.65;31.06;101321.48;1752752;81;25719;-68
2022/10/12 12:12:25;;;;;;;7.55;2.83;;;;;;;25.30;31.05;101315.95;1744620;81;25438;-68
2022/10/12 12:15:01;;;;;;;6.10;3.00;;;;;;;25.25;31.37;101317.67;1740812;81;25737;-69
2022/10/12 12:17:31;;;;;;;9.43;2.98;;;;;;;25.25;32.02;101322.39;1741614;81;27489;-70
2022/10/12 12:20:40;;;;;;;7.17;3.27;;;;;;;24.85;30.51;101319.92;1736907;81;25737;-68
2022/10/12 12:23:36;;;;;;;6.95;3.08;;;;;;;24.02;30.72;101319.85;1741729;81;25319;-70
2022/10/12 12:26:17;;;;;;;9.38;3.42;;;;;;;23.33;31.75;101327.53;1750181;81;25835;-69
2022/10/12 12:28:50;;;;;;;7.00;3.05;;;;;;;22.83;32.20;101320.05;1731958;81;25861;-69
2022/10/12 12:31:25;;;;;;;11.12;3.87;;;;;;;22.34;32.66;101318.77;1741160;81;27529;-70
2022/10/12 12:34:06;;;;;;;11.10;3.52;;;;;;;21.90;33.13;101323.76;1727522;82;25897;-70
2022/10/12 12:36:50;;;;;;;15.32;3.45;;;;;;;21.46;34.07;101319.23;1730463;81;25674;-68
2022/10/12 12:39:30;;;;;;;11.60;4.87;;;;;;;21.03;34.86;101323.73;1735033;81;25707;-67
2022/10/12 12:42:04;;;;;;;13.35;4.67;;;;;;;20.63;35.37;101317.21;1729647;81;25783;-67
2022/10/12 12:44:41;;;;;;;22.37;9.33;;;;;;;20.11;35.26;101291.47;1742946;82;27449;-68
2022/10/12 12:47:13;;;;;;;12.05;5.65;;;;;;;19.95;35.63;101318.88;1741719;79;25719;-69
2022/10/12 12:49:47;;;;;;;11.28;3.72;;;;;;;19.60;35.92;101315.25;1765099;80;25319;-67
2022/10/12 12:52:37;;;;;;;17.07;5.65;;;;;;;19.31;37.03;101314.16;1731277;80;25704;-67
2022/10/12 12:55:35;;;;;;;17.35;4.35;;;;;;;19.03;37.12;101317.56;1725676;80;25731;-70
2022/10/12 12:58:25;;;;;;;22.45;6.62;;;;;;;18.89;39.44;101311.04;1722192;81;28473;-67
2022/10/12 13:01:33;;;;;;;15.08;4.60;;;;;;;19.27;39.07;101302.26;1742977;81;25697;-66
2022/10/12 13:04:40;;;;;;;12.45;3.00;;;;;;;19.27;38.58;101308.53;1714133;81;26184;-68
2022/10/12 13:07:48;;;;;;;10.38;3.92;;;;;;;19.06;38.61;101297.69;1713624;82;25793;-66
2022/10/12 13:10:40;;;;;;;6.10;2.25;;;;;;;19.07;39.60;101308.08;1725221;81;25877;-69
2022/10/12 13:13:39;;;;;;;16.23;5.20;;;;;;;19.51;40.12;101298.69;1730648;81;27501;-67
2022/10/12 13:16:19;;;;;;;31.65;10.25;;;;;;;20.09;39.97;101306.68;1712438;82;26861;-66
2022/10/12 13:19:10;;;;;;;22.25;7.42;;;;;;;20.55;40.06;101311.85;1721760;83;26283;-64
2022/10/12 13:21:47;;;;;;;32.40;10.25;;;;;;;20.86;38.45;101307.00;1735837;81;25729;-66
2022/10/12 13:24:29;;;;;;;19.67;6.50;;;;;;;20.76;37.38;101302.03;1725106;81;25790;-64
2022/10/12 13:27:01;;;;;;;24.45;8.13;;;;;;;20.46;37.35;101306.52;1725239;82;27814;-66
2022/10/12 13:29:58;;;;;;;15.60;5.37;;;;;;;20.18;37.12;101307.34;1729084;81;25747;-63
2022/10/12 13:33:02;;;;;;;13.72;4.80;;;;;;;19.86;37.46;101303.10;1724057;81;25719;-64
2022/10/12 13:35:36;;;;;;;14.63;5.50;;;;;;;19.55;37.96;101304.52;1736587;81;26114;-67
2022/10/12 13:38:17;;;;;;;22.77;7.92;;;;;;;19.27;38.20;101302.26;1728719;81;25629;-64
2022/10/12 13:40:51;;;;;;;35.45;15.45;;;;;;;19.02;38.52;101300.31;1710078;82;27528;-68
2022/10/12 13:43:32;;;;;;;31.45;14.78;;;;;;;18.77;39.40;101310.42;1713435;82;25685;-72